LFSD 221130Z AUTO 17007KT CAVOK 10/02 Q1031

ElémentsDécodage
LFSD Station météo située sur l'aérodrome de DIJON Longvic
221130Z émis le 22 du mois à 11h30 UTC
AUTO Bulletin édité par un automate
17007KT vent du 170°, 07 noeuds
CAVOK Ceiling And Visibility OK
- Visibilité de 10 Km ou plus
- Pas de nuage au-dessous de 1500m ou au-dessous de l'altitude minimale du secteur la plus élevée (si>1500m) et absence de CB
- pas de temps présent significatif
10/02 température 10°C, point de rosée 02°C
 soit une humidité relative de 58%
Q1031 la pression au niveau de la mer (QNH) est de 1031 hPa